Aérodrome :
LOGIN :

S'inscrire | Disclaimer

   EN    FR    IT 

 










Légende :    VFR   VFR Marginal   IFR   IFR Intensif   IFR Très Intensif
Visi : 
Plafond : 
>= 8 km
>= 3000ft
5 à 8 km
1000 à 3000 ft
1500m à 5 km
500 à 1000 ft
800 à 1500m
200 à 500 ft
< 800m
< 200 ft
Symboles :   Orages  Brouillard  Fortes neiges  Fortes précipitations  Vent > 20 kt
SIGMETs :   Divers  Orages  Givrage  Turbulence  Onde Orograph.  Cendres Volcan.






- Altitude de l'aérodrome : 23 ft
- Code IATA : XFW


EDHI - Hamburg Finkenwerder

DERNIER METAR :
  • 131150Z 20013KT 9999 BKN040 06/02 Q0999

METARs EXPIRÉS :
  • 131120Z 20015KT 9999 BKN041 05/02 Q0999
  • 131050Z 20013KT 9999 FEW019 BKN043 05/02 Q0998
  • 131020Z 20011KT 9999 FEW023 BKN043 05/02 Q0999
  • 130950Z 20014KT 9999 BKN045 05/02 Q0999
  • 130920Z 20014KT 9999 FEW022 BKN046 04/02 Q0999

TAF TAF EDHI
Valide du 13 à 12h jusqu'au 13 à 21h UTC


131100Z 1312/1321 18010KT 9999 FEW015 BKN020
TEMPO 1312/1314 BKN013
BECMG 1314/1317 16005KT BKN013
TEMPO 1316/1321 BKN007



MET'MAP, la Météo Aéronautique d'un coup d'oeil ! - Copyright ORBIFLY Décembre 2007 - Disclaimer

ORBIFLY MET'MAP TEAM :

Programmation & Développement : Alexandra Zaïnal
Conception & Développement : Baudouin d'Aumeries
Co-Programmation & Développement : Marc-Olivier Méhu
Soutien technique & logistique : Manuel Goepfert

Contact : metmap@orbifly.com




SOURCES & CREDITS :

   NOAA